createdAt,value
2023-04-23T00:04:44.864Z,17.48
2023-04-23T00:09:47.768Z,17.43
2023-04-23T00:14:50.575Z,17.39
2023-04-23T00:19:52.671Z,17.37
2023-04-23T00:24:54.679Z,17.35
2023-04-23T00:29:56.802Z,17.34
2023-04-23T00:34:58.714Z,17.36
2023-04-23T00:40:01.193Z,17.34
2023-04-23T00:45:03.730Z,17.31
2023-04-23T00:50:06.683Z,17.29
2023-04-23T00:55:09.257Z,17.29
2023-04-23T01:05:16.121Z,17.30
2023-04-23T01:15:15.650Z,17.29
2023-04-23T01:20:17.991Z,17.30
2023-04-23T01:25:20.157Z,17.29
2023-04-23T01:30:22.592Z,17.27
2023-04-23T01:35:25.630Z,17.24
2023-04-23T01:40:27.965Z,17.18
2023-04-23T01:45:31.411Z,17.13
2023-04-23T01:50:33.798Z,17.08
2023-04-23T01:55:41.355Z,17.04
2023-04-23T02:00:43.790Z,17.01
2023-04-23T02:05:46.834Z,17.01
2023-04-23T02:10:49.825Z,17.02
2023-04-23T02:15:52.056Z,17.03
2023-04-23T02:22:47.356Z,17.02
2023-04-23T02:27:49.886Z,17.00
2023-04-23T02:32:52.196Z,16.99
2023-04-23T02:42:46.491Z,16.98
2023-04-23T02:47:48.718Z,16.98
2023-04-23T02:52:50.782Z,17.01
2023-04-23T02:57:52.970Z,17.03
2023-04-23T03:02:55.714Z,17.05
2023-04-23T03:07:57.917Z,17.08
2023-04-23T03:13:01.334Z,17.11
2023-04-23T03:18:04.557Z,17.13
2023-04-23T03:23:07.164Z,17.15
2023-04-23T03:28:09.417Z,17.17
2023-04-23T03:33:11.636Z,17.15
2023-04-23T03:38:13.670Z,17.16
2023-04-23T03:43:16.824Z,17.16
2023-04-23T03:48:37.380Z,17.16
2023-04-23T03:53:45.967Z,17.19
2023-04-23T03:59:10.264Z,17.17
2023-04-23T04:04:12.932Z,17.13
2023-04-23T04:09:17.112Z,17.13
2023-04-23T04:14:19.532Z,17.11
2023-04-23T04:19:21.543Z,17.13
2023-04-23T04:25:01.109Z,17.14
2023-04-23T04:30:44.208Z,17.17
2023-04-23T04:36:27.343Z,17.19
2023-04-23T04:41:29.433Z,17.18
2023-04-23T04:46:31.954Z,17.10
2023-04-23T04:51:34.273Z,17.08
2023-04-23T04:56:36.432Z,17.05
2023-04-23T05:01:38.655Z,17.03
2023-04-23T05:06:41.102Z,17.02
2023-04-23T05:11:43.419Z,17.05
2023-04-23T05:16:45.702Z,17.05
2023-04-23T05:21:47.975Z,17.07
2023-04-23T05:26:50.031Z,17.10
2023-04-23T05:31:52.318Z,17.11
2023-04-23T05:36:54.392Z,17.12
2023-04-23T05:41:56.490Z,17.11
2023-04-23T05:46:58.943Z,17.14
2023-04-23T05:52:03.006Z,17.18
2023-04-23T05:57:05.265Z,17.25
2023-04-23T06:02:09.468Z,17.29
2023-04-23T06:07:12.608Z,17.31
2023-04-23T06:12:14.620Z,17.31
2023-04-23T06:17:16.685Z,17.34
2023-04-23T06:22:18.797Z,17.36
2023-04-23T06:27:20.921Z,17.40
2023-04-23T06:32:25.601Z,17.51
2023-04-23T06:37:29.723Z,17.61
2023-04-23T06:42:32.344Z,17.69
2023-04-23T06:47:49.907Z,17.79
2023-04-23T06:52:52.881Z,17.90
2023-04-23T06:57:55.507Z,17.99
2023-04-23T07:02:57.601Z,18.07
2023-04-23T07:07:59.693Z,18.12
2023-04-23T07:13:01.969Z,18.22
2023-04-23T07:18:06.512Z,18.36
2023-04-23T07:23:08.680Z,18.49
2023-04-23T07:28:10.873Z,18.64
2023-04-23T07:33:13.088Z,18.70
2023-04-23T07:38:15.127Z,18.81
2023-04-23T07:43:17.307Z,18.88
2023-04-23T07:48:19.317Z,18.99
2023-04-23T07:53:21.813Z,19.01
2023-04-23T07:58:25.780Z,19.06
2023-04-23T08:03:29.210Z,19.13
2023-04-23T08:08:31.444Z,19.23
2023-04-23T08:13:33.831Z,19.56
2023-04-23T08:18:35.867Z,19.78
2023-04-23T08:23:37.903Z,20.18
2023-04-23T08:28:40.022Z,20.45
2023-04-23T08:33:42.074Z,20.45
2023-04-23T08:38:44.249Z,20.49
2023-04-23T08:44:15.726Z,20.74
2023-04-23T08:49:18.852Z,20.55
2023-04-23T08:54:28.248Z,20.57
2023-04-23T08:59:34.729Z,20.57
2023-04-23T09:04:37.554Z,20.58
2023-04-23T09:09:40.975Z,20.28
2023-04-23T09:14:43.621Z,20.07
2023-04-23T09:19:47.105Z,19.90
2023-04-23T09:24:49.304Z,19.93
2023-04-23T09:29:53.192Z,20.25
2023-04-23T09:34:57.330Z,20.19
2023-04-23T09:40:01.038Z,20.39
2023-04-23T09:45:06.624Z,20.40
2023-04-23T09:50:10.769Z,20.20
2023-04-23T09:55:13.001Z,20.45
2023-04-23T10:00:17.519Z,20.40
2023-04-23T10:05:27.316Z,20.56
2023-04-23T10:10:43.168Z,20.85
2023-04-23T10:15:54.171Z,20.92
2023-04-23T10:20:57.850Z,21.10
2023-04-23T10:26:01.792Z,21.18
2023-04-23T10:31:05.642Z,21.33
2023-04-23T10:36:12.104Z,21.24
2023-04-23T10:41:20.782Z,20.87
2023-04-23T10:46:30.418Z,20.85
2023-04-23T10:56:44.218Z,20.62
2023-04-23T11:01:52.780Z,20.59
2023-04-23T11:06:57.487Z,20.66
2023-04-23T11:12:01.893Z,20.46
2023-04-23T11:17:06.826Z,20.26
2023-04-23T11:22:18.565Z,20.19
2023-04-23T11:27:21.179Z,20.06
2023-04-23T11:32:24.423Z,19.94
2023-04-23T11:37:26.720Z,19.92
2023-04-23T11:42:29.518Z,19.83
2023-04-23T11:47:33.248Z,20.02
2023-04-23T11:52:36.054Z,20.12
2023-04-23T11:57:44.454Z,20.19
2023-04-23T12:02:58.414Z,20.13
2023-04-23T12:08:32.632Z,20.00
2023-04-23T12:13:34.826Z,19.90
2023-04-23T12:18:44.430Z,20.08
2023-04-23T12:23:51.742Z,20.20
2023-04-23T12:28:56.801Z,20.01
2023-04-23T12:34:08.308Z,19.82
2023-04-23T12:39:36.185Z,19.76
2023-04-23T12:44:39.096Z,19.92
2023-04-23T12:49:42.481Z,20.04
2023-04-23T12:54:45.113Z,20.25
2023-04-23T12:59:50.454Z,20.30
2023-04-23T13:04:54.557Z,20.13
2023-04-23T13:09:57.400Z,20.06
2023-04-23T13:14:59.527Z,20.14
2023-04-23T13:20:01.657Z,20.17
2023-04-23T13:25:04.313Z,20.30
2023-04-23T13:30:07.249Z,20.14
2023-04-23T13:35:09.879Z,19.88
2023-04-23T13:40:12.567Z,19.65
2023-04-23T13:45:14.983Z,19.54
2023-04-23T13:50:17.280Z,19.36
2023-04-23T13:55:19.338Z,19.19
2023-04-23T14:00:21.456Z,19.09
2023-04-23T14:05:23.466Z,19.15
2023-04-23T14:10:25.698Z,19.08
2023-04-23T14:15:28.211Z,18.97
2023-04-23T14:20:30.542Z,18.92
2023-04-23T14:25:40.914Z,18.87
2023-04-23T14:30:42.885Z,18.87
2023-04-23T14:35:44.695Z,19.03
2023-04-23T14:40:46.674Z,19.23
2023-04-23T14:45:48.954Z,19.41
2023-04-23T14:50:51.279Z,19.56
2023-04-23T14:55:53.447Z,19.68
2023-04-23T15:00:55.763Z,19.73
2023-04-23T15:05:57.838Z,19.78
2023-04-23T15:11:00.264Z,19.80
2023-04-23T15:16:05.778Z,19.78
2023-04-23T15:21:08.297Z,19.84
2023-04-23T15:26:12.660Z,19.93
2023-04-23T15:31:14.849Z,19.97
2023-04-23T15:36:17.184Z,20.00
2023-04-23T15:41:19.365Z,20.06
2023-04-23T15:46:21.794Z,20.11
2023-04-23T15:51:23.995Z,20.11
2023-04-23T15:56:26.870Z,20.10
2023-04-23T16:01:29.883Z,20.11
2023-04-23T16:06:32.114Z,20.13
2023-04-23T16:11:38.393Z,20.15
2023-04-23T16:16:40.601Z,20.22
2023-04-23T16:21:42.761Z,20.22
2023-04-23T16:26:45.060Z,20.21
2023-04-23T16:31:47.373Z,20.29
2023-04-23T16:36:49.660Z,20.38
2023-04-23T16:41:52.579Z,20.44
2023-04-23T16:46:54.624Z,20.45
2023-04-23T16:51:56.871Z,20.49
2023-04-23T16:56:59.172Z,20.53
2023-04-23T17:02:01.384Z,20.60
2023-04-23T17:07:03.698Z,20.61
2023-04-23T17:12:05.740Z,20.59
2023-04-23T17:17:07.927Z,20.60
2023-04-23T17:22:10.821Z,20.59
2023-04-23T17:27:12.779Z,20.55
2023-04-23T17:32:15.192Z,20.52
2023-04-23T17:37:17.360Z,20.50
2023-04-23T17:42:19.829Z,20.46
2023-04-23T17:47:22.275Z,20.42
2023-04-23T17:52:24.836Z,20.32
2023-04-23T17:57:27.318Z,20.20
2023-04-23T18:02:29.545Z,20.08
2023-04-23T18:07:31.873Z,20.04
2023-04-23T18:12:34.516Z,19.99
2023-04-23T18:17:36.782Z,19.92
2023-04-23T18:22:41.309Z,19.84
2023-04-23T18:27:43.379Z,19.73
2023-04-23T18:32:59.763Z,19.63
2023-04-23T18:38:09.986Z,19.54
2023-04-23T18:43:12.175Z,19.46
2023-04-23T18:48:47.751Z,19.40
2023-04-23T18:53:50.210Z,19.37
2023-04-23T18:58:52.327Z,19.37
2023-04-23T19:03:54.967Z,19.38
2023-04-23T19:08:57.277Z,19.37
2023-04-23T19:13:59.359Z,19.35
2023-04-23T19:19:01.535Z,19.35
2023-04-23T19:24:03.618Z,19.38
2023-04-23T19:29:05.950Z,19.37
2023-04-23T19:34:08.337Z,19.35
2023-04-23T19:39:10.719Z,19.30
2023-04-23T19:44:12.752Z,19.26
2023-04-23T19:49:14.757Z,19.16
2023-04-23T19:54:17.096Z,18.98
2023-04-23T19:59:21.313Z,18.71
2023-04-23T20:04:23.543Z,18.36
2023-04-23T20:09:25.901Z,18.16
2023-04-23T20:14:29.088Z,17.99
2023-04-23T20:19:31.446Z,17.94
2023-04-23T20:24:33.856Z,17.85
2023-04-23T20:29:36.153Z,17.75
2023-04-23T20:34:38.360Z,17.63
2023-04-23T20:39:40.597Z,17.60
2023-04-23T20:44:45.704Z,17.52
2023-04-23T20:49:47.841Z,17.52
2023-04-23T20:54:50.047Z,17.54
2023-04-23T20:59:52.118Z,17.54
2023-04-23T21:04:54.002Z,17.56
2023-04-23T21:09:56.061Z,17.54
2023-04-23T21:14:58.528Z,17.47
2023-04-23T21:20:00.888Z,17.48
2023-04-23T21:25:03.777Z,17.48
2023-04-23T21:30:14.497Z,17.49
2023-04-23T21:35:16.638Z,17.43
2023-04-23T21:40:18.882Z,17.46
2023-04-23T21:45:21.128Z,17.50
2023-04-23T21:50:24.780Z,17.50
2023-04-23T21:55:28.137Z,17.47
2023-04-23T22:00:30.254Z,17.45
2023-04-23T22:05:32.608Z,17.48
2023-04-23T22:10:34.701Z,17.44
2023-04-23T22:15:37.018Z,17.38
2023-04-23T22:20:39.210Z,17.29
2023-04-23T22:25:41.373Z,17.29
2023-04-23T22:30:43.941Z,17.30
2023-04-23T22:35:46.291Z,17.30
2023-04-23T22:40:48.253Z,17.31
2023-04-23T22:45:50.159Z,17.22
2023-04-23T22:50:52.673Z,17.15
2023-04-23T22:55:55.096Z,17.17
2023-04-23T23:00:57.120Z,17.16
2023-04-23T23:05:59.028Z,17.20
2023-04-23T23:11:01.187Z,17.18
2023-04-23T23:16:05.923Z,17.18
2023-04-23T23:21:07.994Z,17.18
2023-04-23T23:26:09.983Z,17.22
2023-04-23T23:31:12.270Z,17.15
2023-04-23T23:36:14.270Z,17.03
2023-04-23T23:41:16.254Z,16.93
2023-04-23T23:46:18.592Z,16.91
2023-04-23T23:51:20.746Z,16.95
2023-04-23T23:56:22.871Z,16.99
